createdAt,value
2022-11-24T00:01:23.875Z,56.50
2022-11-24T00:03:59.563Z,53.80
2022-11-24T00:06:28.459Z,54.20
2022-11-24T00:08:56.703Z,67.70
2022-11-24T00:11:27.656Z,54.40
2022-11-24T00:13:57.060Z,49.00
2022-11-24T00:16:27.922Z,59.90
2022-11-24T00:18:57.402Z,60.80
2022-11-24T00:21:27.479Z,57.70
2022-11-24T00:23:55.810Z,60.20
2022-11-24T00:26:28.960Z,61.40
2022-11-24T00:28:59.454Z,61.30
2022-11-24T00:31:31.620Z,64.90
2022-11-24T00:34:01.834Z,70.70
2022-11-24T00:36:32.306Z,74.40
2022-11-24T00:39:03.215Z,76.00
2022-11-24T00:41:32.056Z,73.40
2022-11-24T00:44:00.482Z,64.70
2022-11-24T00:46:28.632Z,68.60
2022-11-24T00:48:57.507Z,72.10
2022-11-24T00:51:28.072Z,71.80
2022-11-24T00:53:57.441Z,71.00
2022-11-24T00:56:27.204Z,69.40
2022-11-24T00:58:55.438Z,64.80
2022-11-24T01:01:26.175Z,66.30
2022-11-24T01:03:55.349Z,63.40
2022-11-24T01:06:26.084Z,60.40
2022-11-24T01:08:54.693Z,65.90
2022-11-24T01:11:28.988Z,63.40
2022-11-24T01:13:59.156Z,65.50
2022-11-24T01:16:32.760Z,82.60
2022-11-24T01:19:01.572Z,59.30
2022-11-24T01:21:29.575Z,62.90
2022-11-24T01:23:57.789Z,58.60
2022-11-24T01:26:25.631Z,60.90
2022-11-24T01:28:55.529Z,66.30
2022-11-24T01:31:25.058Z,62.20
2022-11-24T01:33:54.089Z,63.90
2022-11-24T01:36:22.527Z,60.60
2022-11-24T01:38:51.631Z,65.00
2022-11-24T01:41:22.723Z,66.90
2022-11-24T01:43:52.524Z,62.30
2022-11-24T01:46:27.143Z,72.70
2022-11-24T01:49:20.996Z,73.90
2022-11-24T01:51:55.577Z,93.10
2022-11-24T01:54:36.430Z,79.50
2022-11-24T01:57:15.592Z,70.80
2022-11-24T01:59:46.830Z,82.70
2022-11-24T02:02:15.506Z,83.70
2022-11-24T02:04:44.305Z,82.20
2022-11-24T02:07:13.671Z,82.50
2022-11-24T02:09:51.839Z,78.30
2022-11-24T02:12:20.162Z,86.70
2022-11-24T02:14:48.286Z,79.80
2022-11-24T02:17:16.173Z,73.20
2022-11-24T02:19:57.633Z,70.10
2022-11-24T02:22:50.121Z,67.20
2022-11-24T02:25:35.317Z,72.80
2022-11-24T02:28:08.708Z,69.80
2022-11-24T02:30:36.704Z,67.20
2022-11-24T02:33:04.498Z,56.90
2022-11-24T02:35:33.401Z,62.80
2022-11-24T02:38:01.233Z,63.00
2022-11-24T02:40:31.071Z,63.20
2022-11-24T02:43:08.028Z,65.50
2022-11-24T02:45:35.985Z,63.40
2022-11-24T02:48:04.079Z,62.60
2022-11-24T02:50:32.094Z,65.40
2022-11-24T02:53:00.004Z,55.80
2022-11-24T02:55:27.982Z,58.50
2022-11-24T02:57:56.163Z,55.90
2022-11-24T03:00:24.053Z,60.50
2022-11-24T03:02:52.458Z,67.20
2022-11-24T03:05:20.869Z,69.70
2022-11-24T03:07:48.742Z,58.40
2022-11-24T03:10:16.896Z,57.20
2022-11-24T03:12:44.835Z,54.90
2022-11-24T03:15:12.689Z,56.90
2022-11-24T03:17:40.591Z,62.20
2022-11-24T03:20:09.350Z,56.90
2022-11-24T03:22:37.592Z,59.20
2022-11-24T03:25:05.796Z,56.40
2022-11-24T03:27:33.792Z,57.10
2022-11-24T03:30:01.678Z,62.00
2022-11-24T03:32:29.614Z,56.50
2022-11-24T03:34:57.513Z,52.80
2022-11-24T03:37:25.370Z,57.70
2022-11-24T03:39:53.206Z,56.30
2022-11-24T03:42:21.052Z,60.30
2022-11-24T03:44:48.890Z,52.60
2022-11-24T03:47:16.864Z,60.60
2022-11-24T03:49:44.831Z,54.50
2022-11-24T03:52:12.728Z,59.70
2022-11-24T03:54:40.545Z,53.50
2022-11-24T03:57:08.603Z,57.20
2022-11-24T03:59:36.515Z,58.00
2022-11-24T04:02:04.456Z,58.20
2022-11-24T04:04:32.743Z,61.00
2022-11-24T04:07:00.858Z,53.30
2022-11-24T04:09:28.776Z,59.00
2022-11-24T04:12:15.394Z,59.40
2022-11-24T04:14:43.268Z,62.10
2022-11-24T04:17:11.169Z,59.10
2022-11-24T04:19:39.150Z,56.60
2022-11-24T04:22:06.989Z,60.70
2022-11-24T04:24:35.135Z,81.90
2022-11-24T04:27:03.388Z,58.10
2022-11-24T04:29:31.462Z,62.40
2022-11-24T04:31:59.282Z,68.90
2022-11-24T04:34:27.080Z,62.80
2022-11-24T04:36:54.869Z,52.10
2022-11-24T04:39:26.448Z,59.20
2022-11-24T04:41:56.995Z,62.50
2022-11-24T04:44:24.996Z,59.60
2022-11-24T04:46:52.982Z,62.50
2022-11-24T04:49:20.954Z,59.70
2022-11-24T04:51:48.810Z,52.70
2022-11-24T04:54:16.743Z,58.80
2022-11-24T04:56:44.608Z,56.90
2022-11-24T04:59:15.006Z,59.40
2022-11-24T05:01:44.272Z,55.40
2022-11-24T05:04:14.581Z,56.30
2022-11-24T05:06:42.540Z,57.60
2022-11-24T05:09:17.743Z,53.40
2022-11-24T05:11:45.722Z,55.40
2022-11-24T05:14:13.606Z,58.30
2022-11-24T05:16:41.695Z,63.40
2022-11-24T05:19:09.671Z,65.80
2022-11-24T05:21:37.746Z,70.70
2022-11-24T05:24:06.065Z,61.60
2022-11-24T05:26:35.580Z,59.00
2022-11-24T05:29:03.581Z,63.10
2022-11-24T05:31:31.596Z,66.20
2022-11-24T05:33:59.613Z,63.70
2022-11-24T05:36:45.997Z,64.90
2022-11-24T05:39:13.817Z,69.70
2022-11-24T05:41:42.205Z,59.40
2022-11-24T05:44:10.203Z,62.00
2022-11-24T05:46:38.448Z,56.10
2022-11-24T05:49:06.317Z,60.40
2022-11-24T05:51:34.553Z,56.50
2022-11-24T05:54:02.564Z,66.90
2022-11-24T05:56:30.551Z,54.10
2022-11-24T05:58:58.544Z,52.30
2022-11-24T06:01:26.402Z,53.80
2022-11-24T06:03:54.372Z,45.50
2022-11-24T06:06:22.314Z,46.30
2022-11-24T06:08:50.324Z,44.10
2022-11-24T06:11:18.228Z,43.40
2022-11-24T06:13:48.679Z,43.10
2022-11-24T06:16:17.162Z,39.40
2022-11-24T06:18:45.137Z,42.20
2022-11-24T06:21:13.048Z,39.60
2022-11-24T06:23:41.193Z,35.10
2022-11-24T06:26:09.371Z,37.70
2022-11-24T06:28:37.485Z,34.30
2022-11-24T06:31:05.956Z,36.40
2022-11-24T06:33:37.081Z,42.20
2022-11-24T06:36:07.894Z,35.10
2022-11-24T06:38:36.824Z,37.50
2022-11-24T06:41:07.364Z,37.80
2022-11-24T06:43:35.978Z,38.30
2022-11-24T06:46:04.071Z,38.60
2022-11-24T06:48:32.903Z,36.80
2022-11-24T06:51:03.025Z,34.10
2022-11-24T06:53:32.309Z,34.50
2022-11-24T06:56:01.049Z,33.30
2022-11-24T06:58:29.082Z,34.10
2022-11-24T07:00:57.211Z,36.00
2022-11-24T07:03:25.236Z,30.40
2022-11-24T07:05:57.993Z,28.20
2022-11-24T07:08:26.343Z,29.60
2022-11-24T07:10:54.377Z,28.70
2022-11-24T07:13:22.362Z,29.20
2022-11-24T07:15:50.681Z,32.20
2022-11-24T07:18:18.625Z,23.90
2022-11-24T07:20:46.419Z,22.80
2022-11-24T07:23:14.309Z,27.40
2022-11-24T07:25:42.274Z,29.60
2022-11-24T07:28:10.186Z,24.80
2022-11-24T07:30:38.103Z,19.20
2022-11-24T07:33:06.004Z,25.30
2022-11-24T07:35:33.897Z,20.50
2022-11-24T07:38:01.843Z,22.00
2022-11-24T07:40:29.781Z,19.10
2022-11-24T07:43:01.124Z,16.90
2022-11-24T07:45:28.985Z,16.20
2022-11-24T07:47:56.939Z,14.80
2022-11-24T07:50:24.833Z,15.20
2022-11-24T07:52:52.854Z,18.10
2022-11-24T07:55:20.700Z,19.90
2022-11-24T07:57:48.505Z,17.70
2022-11-24T08:00:17.153Z,15.90
2022-11-24T08:02:44.948Z,15.40
2022-11-24T08:05:13.008Z,18.70
2022-11-24T08:07:40.895Z,15.10
2022-11-24T08:10:09.072Z,15.90
2022-11-24T08:12:37.068Z,17.70
2022-11-24T08:15:10.924Z,14.70
2022-11-24T08:17:39.305Z,14.20
2022-11-24T08:20:08.762Z,13.80
2022-11-24T08:22:36.599Z,14.80
2022-11-24T08:25:04.721Z,12.90
2022-11-24T08:27:32.753Z,14.70
2022-11-24T08:30:00.695Z,13.70
2022-11-24T08:32:28.558Z,16.90
2022-11-24T08:35:03.282Z,12.70
2022-11-24T08:37:41.351Z,13.30
2022-11-24T08:40:09.933Z,13.30
2022-11-24T08:42:37.824Z,14.80
2022-11-24T08:45:19.857Z,13.00
2022-11-24T08:47:52.932Z,12.70
2022-11-24T08:50:22.633Z,13.60
2022-11-24T08:52:52.592Z,11.20
2022-11-24T08:55:20.880Z,13.60
2022-11-24T08:57:48.722Z,11.10
2022-11-24T09:00:22.538Z,12.00
2022-11-24T09:05:50.776Z,10.60
2022-11-24T09:08:13.866Z,9.90
2022-11-24T09:10:41.906Z,9.40
2022-11-24T09:13:09.766Z,8.50
2022-11-24T09:15:37.648Z,11.20
2022-11-24T09:18:08.567Z,9.80
2022-11-24T09:20:36.522Z,9.10
2022-11-24T09:23:04.611Z,9.60
2022-11-24T09:25:42.303Z,10.40
2022-11-24T09:28:10.188Z,7.20
2022-11-24T09:30:38.150Z,6.90
2022-11-24T09:33:06.084Z,6.70
2022-11-24T09:35:37.257Z,5.80
2022-11-24T09:38:05.829Z,8.50
2022-11-24T09:40:33.819Z,7.20
2022-11-24T09:43:20.660Z,6.70
2022-11-24T09:46:06.519Z,7.30
2022-11-24T09:48:41.447Z,5.00
2022-11-24T09:51:14.838Z,5.60
2022-11-24T09:53:53.814Z,3.80
2022-11-24T09:56:27.851Z,4.60
2022-11-24T09:59:15.315Z,5.30
2022-11-24T10:01:45.712Z,7.20
2022-11-24T10:04:21.669Z,5.70
2022-11-24T10:07:11.541Z,5.60
2022-11-24T10:10:22.833Z,7.40
2022-11-24T10:13:07.529Z,6.10
2022-11-24T10:16:09.029Z,5.70
2022-11-24T10:19:13.058Z,7.00
2022-11-24T10:22:07.635Z,7.60
2022-11-24T10:25:15.156Z,6.60
2022-11-24T10:28:02.237Z,4.80
2022-11-24T10:30:31.177Z,4.00
2022-11-24T10:33:08.209Z,5.00
2022-11-24T10:35:48.629Z,4.10
2022-11-24T10:38:37.430Z,14.50
2022-11-24T10:41:14.588Z,5.90
2022-11-24T10:43:44.009Z,3.40
2022-11-24T10:46:19.823Z,4.50
2022-11-24T10:48:59.202Z,2.60
2022-11-24T10:51:49.771Z,4.20
2022-11-24T10:54:19.267Z,4.00
2022-11-24T10:56:50.683Z,4.60
2022-11-24T10:59:39.600Z,4.10
2022-11-24T11:02:37.688Z,5.20
2022-11-24T11:05:25.512Z,3.60
2022-11-24T11:08:21.539Z,2.60
2022-11-24T11:11:09.770Z,2.40
2022-11-24T11:13:37.590Z,3.10
2022-11-24T11:16:24.246Z,7.90
2022-11-24T11:18:53.193Z,5.00
2022-11-24T11:21:36.699Z,4.50
2022-11-24T11:24:16.494Z,5.30
2022-11-24T11:26:44.734Z,2.90
2022-11-24T11:35:12.766Z,4.00
2022-11-24T11:37:45.364Z,4.30
2022-11-24T11:40:21.895Z,4.40
2022-11-24T11:43:04.093Z,3.20
2022-11-24T11:45:36.906Z,3.10
2022-11-24T11:48:23.823Z,4.30
2022-11-24T11:51:25.882Z,4.40
2022-11-24T11:54:02.995Z,4.60
2022-11-24T11:56:37.585Z,4.20
2022-11-24T11:59:30.932Z,4.00
2022-11-24T12:02:33.632Z,5.30
2022-11-24T12:05:20.159Z,2.70
2022-11-24T12:08:14.674Z,4.20
2022-11-24T12:11:13.932Z,3.00
2022-11-24T12:13:45.064Z,4.20
2022-11-24T12:16:22.079Z,3.00
2022-11-24T12:18:58.315Z,3.70
2022-11-24T12:21:52.886Z,3.90
2022-11-24T12:24:52.151Z,3.70
2022-11-24T12:27:55.647Z,5.50
2022-11-24T12:30:24.210Z,3.80
2022-11-24T12:33:26.459Z,3.10
2022-11-24T12:36:17.171Z,5.20
2022-11-24T12:38:52.167Z,5.00
2022-11-24T12:41:43.116Z,4.70
2022-11-24T12:44:30.823Z,3.50
2022-11-24T12:47:31.230Z,3.10
2022-11-24T12:50:18.942Z,4.30
2022-11-24T12:52:52.899Z,3.60
2022-11-24T12:55:25.621Z,3.50
2022-11-24T12:58:12.280Z,3.80
2022-11-24T13:00:46.985Z,3.50
2022-11-24T13:03:27.085Z,2.30
2022-11-24T13:06:23.982Z,4.00
2022-11-24T13:08:51.995Z,2.90
2022-11-24T13:11:22.861Z,2.90
2022-11-24T13:14:15.308Z,3.50
2022-11-24T13:19:46.150Z,3.60
2022-11-24T13:22:28.197Z,5.90
2022-11-24T13:25:33.431Z,4.20
2022-11-24T13:28:03.528Z,3.20
2022-11-24T13:30:34.631Z,2.20
2022-11-24T13:33:16.011Z,4.20
2022-11-24T13:36:04.299Z,3.20
2022-11-24T13:38:59.360Z,2.50
2022-11-24T13:41:33.498Z,1.90
2022-11-24T13:44:13.826Z,2.30
2022-11-24T13:47:06.945Z,4.10
2022-11-24T13:49:38.891Z,3.40
2022-11-24T13:52:37.967Z,3.40
2022-11-24T13:55:12.053Z,3.50
2022-11-24T13:57:42.980Z,5.50
2022-11-24T14:00:27.272Z,2.70
2022-11-24T14:03:01.693Z,4.00
2022-11-24T14:05:51.991Z,3.40
2022-11-24T14:08:27.181Z,3.50
2022-11-24T14:10:57.481Z,3.60
2022-11-24T14:13:27.477Z,3.30
2022-11-24T14:16:21.731Z,4.00
2022-11-24T14:18:51.690Z,3.20
2022-11-24T14:21:26.123Z,3.90
2022-11-24T14:24:08.844Z,3.70
2022-11-24T14:26:39.485Z,4.50
2022-11-24T14:29:14.797Z,3.90
2022-11-24T14:31:51.878Z,3.40
2022-11-24T14:34:21.309Z,3.80
2022-11-24T14:36:50.300Z,4.30
2022-11-24T14:39:22.920Z,5.00
2022-11-24T14:42:27.550Z,5.00
2022-11-24T14:45:04.022Z,4.20
2022-11-24T14:47:36.337Z,4.90
2022-11-24T14:50:15.585Z,3.90
2022-11-24T14:53:02.224Z,5.40
2022-11-24T14:55:32.140Z,4.60
2022-11-24T14:58:00.240Z,5.70
2022-11-24T15:00:32.890Z,4.10
2022-11-24T15:03:00.706Z,5.60
2022-11-24T15:05:52.491Z,4.40
2022-11-24T15:08:20.619Z,5.00
2022-11-24T15:10:49.011Z,3.90
2022-11-24T15:13:21.489Z,5.00
2022-11-24T15:15:57.563Z,4.50
2022-11-24T15:18:34.574Z,6.00
2022-11-24T15:21:03.434Z,4.60
2022-11-24T15:23:33.041Z,4.30
2022-11-24T15:26:00.900Z,4.70
2022-11-24T15:28:30.634Z,3.10
2022-11-24T15:31:09.580Z,4.70
2022-11-24T15:33:38.288Z,4.10
2022-11-24T15:36:06.489Z,5.00
2022-11-24T15:38:34.369Z,5.90
2022-11-24T15:41:02.624Z,5.40
2022-11-24T15:43:42.617Z,6.00
2022-11-24T15:46:11.021Z,5.60
2022-11-24T15:48:39.623Z,6.80
2022-11-24T15:51:15.022Z,6.50
2022-11-24T15:53:46.745Z,5.50
2022-11-24T15:56:25.482Z,6.00
2022-11-24T15:58:54.286Z,5.00
2022-11-24T16:01:24.475Z,6.00
2022-11-24T16:03:52.345Z,5.90
2022-11-24T16:06:25.234Z,6.80
2022-11-24T16:08:54.621Z,6.80
2022-11-24T16:11:22.997Z,4.70
2022-11-24T16:13:53.970Z,6.20
2022-11-24T16:16:24.853Z,7.20
2022-11-24T16:18:53.327Z,5.40
2022-11-24T16:21:21.292Z,5.20
2022-11-24T16:23:49.099Z,5.80
2022-11-24T16:26:17.112Z,5.00
2022-11-24T16:28:45.922Z,4.90
2022-11-24T16:31:16.348Z,6.90
2022-11-24T16:33:47.896Z,6.40
2022-11-24T16:36:15.748Z,7.40
2022-11-24T16:38:43.823Z,8.20
2022-11-24T16:41:11.803Z,9.00
2022-11-24T16:43:39.929Z,10.30
2022-11-24T16:46:14.332Z,7.90
2022-11-24T16:48:42.327Z,6.80
2022-11-24T16:51:11.286Z,7.20
2022-11-24T16:53:39.908Z,6.30
2022-11-24T16:56:08.414Z,8.00
2022-11-24T16:58:41.204Z,6.00
2022-11-24T17:01:12.335Z,8.50
2022-11-24T17:03:40.946Z,7.20
2022-11-24T17:06:11.564Z,6.90
2022-11-24T17:08:40.936Z,5.90
2022-11-24T17:11:14.784Z,5.80
2022-11-24T17:16:14.048Z,6.60
2022-11-24T17:18:42.914Z,9.90
2022-11-24T17:21:14.804Z,9.00
2022-11-24T17:23:43.464Z,11.50
2022-11-24T17:26:16.095Z,11.50
2022-11-24T17:28:44.215Z,11.20
2022-11-24T17:31:17.924Z,9.90
2022-11-24T17:33:45.893Z,9.70
2022-11-24T17:36:13.952Z,10.60
2022-11-24T17:38:41.983Z,11.80
2022-11-24T17:41:09.803Z,10.70
2022-11-24T17:43:38.211Z,12.10
2022-11-24T17:46:06.219Z,11.10
2022-11-24T17:48:35.418Z,12.50
2022-11-24T17:51:10.162Z,11.60
2022-11-24T17:53:39.279Z,13.10
2022-11-24T17:56:11.439Z,13.70
2022-11-24T17:58:42.860Z,16.00
2022-11-24T18:01:12.909Z,12.50
2022-11-24T18:03:41.615Z,13.00
2022-11-24T18:06:12.995Z,13.10
2022-11-24T18:08:46.725Z,13.40
2022-11-24T18:11:24.652Z,15.20
2022-11-24T18:14:00.652Z,15.60
2022-11-24T18:16:33.551Z,18.20
2022-11-24T18:19:11.558Z,16.80
2022-11-24T18:21:41.422Z,16.20
2022-11-24T18:24:12.001Z,18.20
2022-11-24T18:26:41.890Z,15.60
2022-11-24T18:29:11.516Z,14.70
2022-11-24T18:31:39.716Z,14.50
2022-11-24T18:34:08.184Z,16.10
2022-11-24T18:36:36.322Z,14.50
2022-11-24T18:39:06.673Z,17.80
2022-11-24T18:41:35.196Z,15.70
2022-11-24T18:44:07.886Z,16.00
2022-11-24T18:46:37.078Z,13.10
2022-11-24T18:49:07.440Z,15.70
2022-11-24T18:51:35.878Z,15.30
2022-11-24T18:54:05.611Z,16.40
2022-11-24T18:56:33.828Z,13.60
2022-11-24T18:59:01.923Z,17.90
2022-11-24T19:01:30.111Z,14.60
2022-11-24T19:04:00.717Z,15.70
2022-11-24T19:06:32.649Z,14.90
2022-11-24T19:09:07.103Z,12.90
2022-11-24T19:11:38.765Z,12.30
2022-11-24T19:14:08.906Z,12.40
2022-11-24T19:16:37.229Z,12.70
2022-11-24T19:19:05.342Z,11.40
2022-11-24T19:21:37.619Z,12.10
2022-11-24T19:24:10.414Z,12.00
2022-11-24T19:26:39.529Z,14.40
2022-11-24T19:29:08.436Z,14.30
2022-11-24T19:31:40.598Z,14.20
2022-11-24T19:34:08.661Z,14.50
2022-11-24T19:36:36.759Z,15.80
2022-11-24T19:39:05.361Z,15.20
2022-11-24T19:41:34.577Z,11.90
2022-11-24T19:44:02.680Z,14.10
2022-11-24T19:46:31.535Z,11.60
2022-11-24T19:49:01.141Z,11.90
2022-11-24T19:51:31.841Z,11.10
2022-11-24T19:54:00.560Z,10.40
2022-11-24T19:56:30.964Z,12.50
2022-11-24T19:58:59.127Z,11.10
2022-11-24T20:01:29.930Z,13.50
2022-11-24T20:04:00.708Z,10.70
2022-11-24T20:06:33.757Z,9.60
2022-11-24T20:09:01.877Z,10.60
2022-11-24T20:11:30.591Z,10.70
2022-11-24T20:13:59.565Z,10.80
2022-11-24T20:16:30.576Z,10.40
2022-11-24T20:19:01.744Z,11.40
2022-11-24T20:21:32.715Z,11.80
2022-11-24T20:24:03.898Z,12.60
2022-11-24T20:26:35.935Z,11.90
2022-11-24T20:29:04.910Z,11.70
2022-11-24T20:31:38.743Z,11.00
2022-11-24T20:36:36.715Z,11.40
2022-11-24T20:39:08.538Z,11.50
2022-11-24T20:41:37.749Z,12.20
2022-11-24T20:44:08.670Z,13.10
2022-11-24T20:46:38.769Z,15.30
2022-11-24T20:49:09.135Z,12.80
2022-11-24T20:51:47.061Z,14.00
2022-11-24T20:54:17.964Z,15.50
2022-11-24T20:56:46.813Z,16.20
2022-11-24T20:59:18.112Z,14.20
2022-11-24T21:01:46.621Z,14.40
2022-11-24T21:04:21.505Z,14.80
2022-11-24T21:06:49.716Z,12.10
2022-11-24T21:09:18.777Z,13.50
2022-11-24T21:11:47.540Z,12.40
2022-11-24T21:14:15.645Z,12.60
2022-11-24T21:16:44.136Z,12.30
2022-11-24T21:19:14.621Z,11.50
2022-11-24T21:21:43.099Z,11.90
2022-11-24T21:24:16.913Z,11.70
2022-11-24T21:26:50.483Z,12.70
2022-11-24T21:29:22.036Z,14.30
2022-11-24T21:31:50.050Z,11.40
2022-11-24T21:34:19.189Z,11.50
2022-11-24T21:36:47.764Z,11.80
2022-11-24T21:39:16.365Z,11.90
2022-11-24T21:41:44.906Z,11.70
2022-11-24T21:44:13.881Z,12.40
2022-11-24T21:46:51.044Z,12.60
2022-11-24T21:49:23.623Z,13.70
2022-11-24T21:51:55.566Z,14.70
2022-11-24T21:54:23.917Z,11.60
2022-11-24T21:56:53.705Z,12.10
2022-11-24T21:59:22.315Z,14.60
2022-11-24T22:01:50.239Z,14.10
2022-11-24T22:04:18.183Z,13.80
2022-11-24T22:06:46.263Z,13.70
2022-11-24T22:09:17.934Z,12.80
2022-11-24T22:11:49.522Z,12.50
2022-11-24T22:14:18.053Z,14.10
2022-11-24T22:16:46.382Z,14.50
2022-11-24T22:19:14.326Z,13.30
2022-11-24T22:21:42.457Z,14.30
2022-11-24T22:24:10.609Z,14.00
2022-11-24T22:26:41.072Z,14.30
2022-11-24T22:29:09.460Z,14.50
2022-11-24T22:31:38.023Z,14.10
2022-11-24T22:34:06.032Z,14.80
2022-11-24T22:36:33.997Z,13.20
2022-11-24T22:39:03.900Z,13.80
2022-11-24T22:41:34.294Z,12.60
2022-11-24T22:44:02.506Z,14.60
2022-11-24T22:46:32.056Z,14.20
2022-11-24T22:49:01.416Z,13.40
2022-11-24T22:51:33.043Z,15.70
2022-11-24T22:54:03.215Z,16.20
2022-11-24T22:56:36.469Z,15.50
2022-11-24T22:59:04.785Z,19.80
2022-11-24T23:01:36.550Z,16.70
2022-11-24T23:04:04.804Z,17.30
2022-11-24T23:06:33.815Z,17.20
2022-11-24T23:09:04.064Z,18.20
2022-11-24T23:11:38.659Z,16.50
2022-11-24T23:14:12.056Z,20.60
2022-11-24T23:16:40.439Z,20.20
2022-11-24T23:19:08.955Z,19.60
2022-11-24T23:21:40.946Z,23.10
2022-11-24T23:24:10.652Z,19.30
2022-11-24T23:26:40.961Z,21.50
2022-11-24T23:29:10.787Z,19.90
2022-11-24T23:31:42.118Z,20.60
2022-11-24T23:34:10.146Z,23.00
2022-11-24T23:36:38.473Z,20.00
2022-11-24T23:39:10.893Z,19.80
2022-11-24T23:41:38.858Z,22.40
2022-11-24T23:44:07.270Z,21.40
2022-11-24T23:46:35.144Z,21.40
2022-11-24T23:49:03.342Z,19.50
2022-11-24T23:51:33.166Z,18.30
2022-11-24T23:54:01.552Z,19.00
2022-11-24T23:56:32.764Z,21.40
2022-11-24T23:59:02.930Z,19.00
